createdAt,value
2018-02-19T00:01:33.246Z,37.70
2018-02-19T00:04:04.407Z,37.70
2018-02-19T00:06:35.063Z,36.50
2018-02-19T00:09:06.357Z,38.97
2018-02-19T00:11:37.562Z,37.30
2018-02-19T00:14:08.043Z,37.90
2018-02-19T00:16:38.518Z,36.57
2018-02-19T00:19:09.098Z,37.67
2018-02-19T00:21:39.620Z,37.13
2018-02-19T00:24:10.873Z,38.23
2018-02-19T00:26:41.336Z,37.67
2018-02-19T00:29:11.753Z,37.47
2018-02-19T00:31:42.172Z,35.17
2018-02-19T00:34:12.596Z,37.13
2018-02-19T00:36:43.444Z,36.60
2018-02-19T00:39:13.828Z,35.27
2018-02-19T00:41:45.495Z,37.73
2018-02-19T00:44:16.636Z,37.23
2018-02-19T00:46:48.434Z,34.67
2018-02-19T00:49:19.993Z,34.03
2018-02-19T00:51:52.323Z,32.97
2018-02-19T00:54:23.729Z,35.10
2018-02-19T00:57:05.682Z,32.93
2018-02-19T00:59:38.775Z,36.57
2018-02-19T01:02:10.374Z,33.73
2018-02-19T01:04:40.681Z,34.90
2018-02-19T01:07:43.097Z,34.43
2018-02-19T01:13:23.962Z,34.97
2018-02-19T01:15:55.354Z,35.17
2018-02-19T01:18:27.050Z,33.63
2018-02-19T01:21:15.709Z,34.23
2018-02-19T01:23:47.385Z,33.73
2018-02-19T01:26:27.490Z,33.60
2018-02-19T01:28:58.270Z,36.87
2018-02-19T01:31:28.686Z,35.57
2018-02-19T01:34:10.506Z,35.73
2018-02-19T01:36:41.737Z,35.90
2018-02-19T01:39:12.128Z,36.40
2018-02-19T01:41:42.814Z,34.27
2018-02-19T01:44:14.033Z,36.60
2018-02-19T01:46:44.387Z,34.87
2018-02-19T01:49:15.956Z,35.60
2018-02-19T01:51:46.493Z,35.50
2018-02-19T01:54:18.715Z,37.40
2018-02-19T01:56:49.129Z,38.47
2018-02-19T01:59:19.618Z,35.27
2018-02-19T02:01:50.094Z,36.20
2018-02-19T02:04:20.576Z,36.90
2018-02-19T02:06:51.058Z,35.90
2018-02-19T02:09:21.501Z,35.47
2018-02-19T02:11:54.076Z,37.47
2018-02-19T02:14:25.255Z,36.53
2018-02-19T02:16:55.697Z,36.67
2018-02-19T02:19:26.098Z,36.27
2018-02-19T02:21:57.389Z,35.13
2018-02-19T02:24:27.935Z,36.33
2018-02-19T02:26:59.451Z,39.37
2018-02-19T02:29:30.205Z,35.63
2018-02-19T02:32:00.735Z,35.37
2018-02-19T02:34:31.151Z,38.07
2018-02-19T02:37:01.612Z,37.40
2018-02-19T02:39:33.338Z,36.50
2018-02-19T02:42:04.226Z,36.10
2018-02-19T02:44:34.718Z,33.93
2018-02-19T02:47:05.100Z,36.07
2018-02-19T02:49:36.418Z,35.20
2018-02-19T02:52:07.631Z,34.77
2018-02-19T02:54:37.998Z,36.47
2018-02-19T02:57:08.418Z,35.73
2018-02-19T02:59:40.133Z,35.07
2018-02-19T03:02:10.568Z,36.77
2018-02-19T03:04:41.246Z,36.17
2018-02-19T03:07:11.665Z,34.80
2018-02-19T03:09:42.113Z,33.97
2018-02-19T03:12:12.573Z,35.90
2018-02-19T03:14:42.990Z,35.87
2018-02-19T03:17:13.664Z,33.97
2018-02-19T03:19:44.873Z,34.40
2018-02-19T03:22:15.333Z,33.57
2018-02-19T03:24:46.492Z,33.13
2018-02-19T03:27:16.934Z,31.80
2018-02-19T03:29:49.787Z,32.53
2018-02-19T03:32:21.222Z,31.37
2018-02-19T03:34:51.707Z,31.47
2018-02-19T03:37:22.941Z,31.87
2018-02-19T03:39:53.266Z,33.90
2018-02-19T03:42:23.890Z,31.50
2018-02-19T03:44:54.427Z,33.00
2018-02-19T03:47:26.273Z,31.90
2018-02-19T03:49:56.725Z,34.20
2018-02-19T03:52:28.084Z,31.73
2018-02-19T03:54:58.554Z,31.90
2018-02-19T03:57:29.744Z,31.77
2018-02-19T04:00:00.681Z,32.63
2018-02-19T04:02:31.125Z,32.90
2018-02-19T04:05:01.574Z,32.73
2018-02-19T04:07:32.062Z,33.30
2018-02-19T04:10:02.455Z,33.77
2018-02-19T04:12:32.920Z,35.67
2018-02-19T04:15:03.343Z,32.97
2018-02-19T04:17:34.066Z,34.97
2018-02-19T04:20:04.548Z,33.37
2018-02-19T04:22:34.936Z,34.17
2018-02-19T04:25:05.419Z,32.33
2018-02-19T04:27:36.594Z,33.23
2018-02-19T04:30:08.288Z,32.90
2018-02-19T04:32:38.677Z,30.97
2018-02-19T04:35:09.451Z,33.07
2018-02-19T04:37:39.890Z,33.20
2018-02-19T04:40:10.291Z,31.50
2018-02-19T04:42:40.768Z,33.33
2018-02-19T04:45:19.379Z,31.03
2018-02-19T04:47:52.183Z,31.57
2018-02-19T04:50:22.598Z,30.43
2018-02-19T04:52:52.959Z,30.83
2018-02-19T04:55:23.423Z,29.20
2018-02-19T04:57:53.905Z,30.03
2018-02-19T05:00:24.651Z,30.10
2018-02-19T05:02:55.067Z,30.00
2018-02-19T05:05:25.712Z,29.60
2018-02-19T05:07:56.170Z,30.43
2018-02-19T05:10:26.543Z,31.50
2018-02-19T05:12:56.883Z,30.97
2018-02-19T05:15:27.310Z,31.17
2018-02-19T05:17:58.090Z,31.53
2018-02-19T05:20:29.278Z,32.03
2018-02-19T05:22:59.798Z,32.50
2018-02-19T05:25:30.232Z,32.37
2018-02-19T05:28:01.582Z,31.10
2018-02-19T05:30:33.122Z,30.83
2018-02-19T05:33:03.667Z,32.90
2018-02-19T05:35:34.524Z,30.90
2018-02-19T05:38:04.945Z,30.77
2018-02-19T05:40:35.491Z,31.50
2018-02-19T05:43:05.962Z,29.97
2018-02-19T05:45:36.436Z,31.90
2018-02-19T05:48:07.695Z,29.63
2018-02-19T05:50:38.713Z,29.87
2018-02-19T05:53:10.136Z,30.63
2018-02-19T05:55:42.118Z,29.60
2018-02-19T05:58:12.528Z,30.20
2018-02-19T06:00:42.988Z,29.37
2018-02-19T06:03:13.417Z,29.80
2018-02-19T06:05:45.685Z,30.77
2018-02-19T06:08:16.110Z,31.57
2018-02-19T06:10:46.499Z,30.40
2018-02-19T06:13:17.329Z,30.37
2018-02-19T06:15:47.719Z,31.17
2018-02-19T06:18:18.341Z,30.47
2018-02-19T06:20:48.817Z,31.40
2018-02-19T06:23:19.387Z,30.40
2018-02-19T06:25:49.807Z,29.80
2018-02-19T06:28:20.199Z,29.80
2018-02-19T06:30:50.902Z,30.63
2018-02-19T06:33:22.132Z,29.77
2018-02-19T06:35:53.387Z,30.17
2018-02-19T06:38:24.602Z,29.30
2018-02-19T06:40:56.016Z,30.17
2018-02-19T06:43:26.446Z,28.90
2018-02-19T06:45:56.783Z,28.77
2018-02-19T06:48:27.238Z,29.53
2018-02-19T06:50:57.694Z,29.77
2018-02-19T06:53:29.040Z,27.17
2018-02-19T06:56:00.760Z,28.63
2018-02-19T06:58:31.126Z,31.77
2018-02-19T07:01:02.266Z,30.17
2018-02-19T07:03:33.476Z,30.97
2018-02-19T07:06:05.027Z,29.83
2018-02-19T07:08:37.028Z,31.23
2018-02-19T07:11:09.249Z,31.37
2018-02-19T07:13:39.809Z,33.80
2018-02-19T07:16:10.235Z,31.40
2018-02-19T07:18:40.706Z,30.87
2018-02-19T07:21:11.178Z,30.60
2018-02-19T07:23:41.991Z,31.87
2018-02-19T07:26:12.457Z,30.10
2018-02-19T07:28:42.950Z,32.80
2018-02-19T07:31:13.350Z,29.20
2018-02-19T07:33:43.786Z,29.43
2018-02-19T07:36:14.466Z,28.00
2018-02-19T07:38:44.871Z,30.07
2018-02-19T07:41:16.482Z,29.03
2018-02-19T07:43:46.884Z,28.53
2018-02-19T07:46:18.061Z,29.70
2018-02-19T07:48:48.485Z,30.53
2018-02-19T07:51:18.958Z,28.80
2018-02-19T07:53:49.367Z,28.13
2018-02-19T07:56:19.774Z,29.83
2018-02-19T07:58:50.355Z,28.90
2018-02-19T08:01:20.822Z,28.50
2018-02-19T08:03:52.764Z,27.73
2018-02-19T08:06:23.949Z,25.80
2018-02-19T08:08:54.374Z,26.80
2018-02-19T08:11:25.332Z,25.03
2018-02-19T08:13:55.742Z,25.10
2018-02-19T08:16:26.223Z,25.87
2018-02-19T08:18:58.133Z,24.37
2018-02-19T08:21:28.589Z,24.03
2018-02-19T08:23:59.277Z,26.70
2018-02-19T08:26:29.685Z,24.87
2018-02-19T08:29:00.642Z,26.80
2018-02-19T08:31:30.956Z,25.50
2018-02-19T08:34:01.345Z,24.63
2018-02-19T08:36:31.798Z,25.07
2018-02-19T08:39:02.412Z,26.00
2018-02-19T08:41:34.031Z,24.40
2018-02-19T08:44:04.517Z,25.13
2018-02-19T08:46:35.082Z,24.33
2018-02-19T08:49:05.571Z,25.87
2018-02-19T08:51:36.062Z,25.30
2018-02-19T08:54:06.886Z,25.40
2018-02-19T08:56:37.310Z,26.00
2018-02-19T08:59:07.915Z,26.27
2018-02-19T09:01:38.298Z,25.40
2018-02-19T09:04:09.569Z,28.00
2018-02-19T09:06:40.026Z,25.50
2018-02-19T09:09:10.486Z,24.90
2018-02-19T09:11:42.488Z,26.03
2018-02-19T09:14:12.954Z,26.87
2018-02-19T09:16:43.599Z,24.70
2018-02-19T09:19:14.032Z,23.80
2018-02-19T09:21:44.478Z,25.00
2018-02-19T09:24:15.713Z,23.90
2018-02-19T09:26:46.122Z,24.00
2018-02-19T09:29:16.783Z,24.63
2018-02-19T09:31:48.040Z,24.40
2018-02-19T09:34:18.453Z,25.20
2018-02-19T09:36:49.718Z,23.80
2018-02-19T09:39:20.173Z,26.07
2018-02-19T09:41:51.920Z,25.77
2018-02-19T09:44:22.310Z,27.37
2018-02-19T09:46:53.890Z,25.20
2018-02-19T09:49:24.302Z,25.47
2018-02-19T09:51:55.123Z,24.07
2018-02-19T09:54:26.701Z,26.20
2018-02-19T09:56:57.093Z,24.53
2018-02-19T09:59:27.918Z,23.90
2018-02-19T10:01:58.381Z,24.00
2018-02-19T10:04:30.413Z,26.53
2018-02-19T10:07:00.807Z,24.67
2018-02-19T10:09:31.221Z,24.63
2018-02-19T10:12:02.128Z,24.73
2018-02-19T10:14:32.595Z,25.97
2018-02-19T10:17:03.380Z,25.23
2018-02-19T10:19:34.665Z,24.40
2018-02-19T10:22:05.047Z,23.70
2018-02-19T10:24:35.528Z,25.60
2018-02-19T10:27:05.945Z,28.90
2018-02-19T10:29:36.715Z,29.37
2018-02-19T10:32:07.692Z,33.80
2018-02-19T10:34:39.028Z,34.07
2018-02-19T10:37:10.271Z,35.57
2018-02-19T10:39:41.546Z,32.50
2018-02-19T10:42:12.016Z,31.47
2018-02-19T10:44:42.543Z,32.07
2018-02-19T10:47:13.042Z,31.63
2018-02-19T10:49:43.454Z,33.53
2018-02-19T10:52:13.828Z,35.40
2018-02-19T10:54:44.226Z,36.17
2018-02-19T10:57:14.661Z,43.67
2018-02-19T10:59:45.229Z,48.30
2018-02-19T11:02:16.466Z,47.90
2018-02-19T11:04:47.286Z,45.43
2018-02-19T11:07:17.730Z,42.57
2018-02-19T11:09:48.115Z,36.87
2018-02-19T11:12:18.520Z,33.57
2018-02-19T11:14:48.916Z,34.80
2018-02-19T11:17:19.341Z,32.73
2018-02-19T11:19:49.797Z,35.20
2018-02-19T11:22:20.271Z,32.23
2018-02-19T11:24:50.668Z,33.40
2018-02-19T11:27:21.059Z,32.37
2018-02-19T11:29:53.012Z,35.17
2018-02-19T11:32:24.238Z,34.00
2018-02-19T11:34:55.712Z,33.57
2018-02-19T11:37:26.842Z,33.83
2018-02-19T11:39:57.348Z,33.50
2018-02-19T11:42:27.731Z,32.13
2018-02-19T11:44:58.939Z,34.70
2018-02-19T11:47:29.759Z,33.37
2018-02-19T11:50:00.144Z,33.07
2018-02-19T11:52:30.798Z,31.90
2018-02-19T11:55:01.220Z,33.00
2018-02-19T11:57:31.663Z,33.60
2018-02-19T12:00:02.087Z,34.03
2018-02-19T12:02:32.514Z,34.70
2018-02-19T12:05:03.528Z,35.20
2018-02-19T12:07:33.905Z,34.90
2018-02-19T12:10:04.454Z,35.23
2018-02-19T12:12:36.162Z,36.67
2018-02-19T12:15:06.539Z,33.47
2018-02-19T12:17:39.325Z,35.57
2018-02-19T12:20:10.521Z,34.50
2018-02-19T12:22:41.478Z,35.83
2018-02-19T12:25:11.906Z,34.10
2018-02-19T12:27:42.230Z,34.63
2018-02-19T12:30:12.631Z,36.60
2018-02-19T12:32:43.016Z,34.63
2018-02-19T12:35:14.043Z,36.10
2018-02-19T12:37:46.110Z,36.57
2018-02-19T12:40:17.587Z,37.47
2018-02-19T12:42:48.056Z,38.17
2018-02-19T12:45:18.434Z,44.27
2018-02-19T12:47:48.877Z,47.17
2018-02-19T12:50:19.338Z,43.13
2018-02-19T12:52:50.958Z,36.13
2018-02-19T12:55:21.377Z,35.20
2018-02-19T12:57:51.828Z,35.83
2018-02-19T13:00:22.240Z,33.60
2018-02-19T13:02:52.900Z,34.20
2018-02-19T13:05:23.510Z,33.70
2018-02-19T13:07:53.907Z,33.00
2018-02-19T13:10:25.385Z,33.40
2018-02-19T13:12:55.846Z,34.53
2018-02-19T13:15:26.239Z,33.87
2018-02-19T13:17:56.682Z,31.77
2018-02-19T13:20:27.166Z,32.70
2018-02-19T13:22:57.922Z,32.60
2018-02-19T13:25:28.322Z,30.20
2018-02-19T13:27:58.660Z,31.73
2018-02-19T13:30:29.043Z,31.40
2018-02-19T13:32:59.463Z,31.93
2018-02-19T13:35:32.865Z,30.70
2018-02-19T13:38:03.316Z,28.83
2018-02-19T13:40:35.781Z,30.90
2018-02-19T13:43:07.895Z,30.70
2018-02-19T13:45:38.302Z,28.73
2018-02-19T13:48:08.639Z,30.90
2018-02-19T13:50:39.105Z,30.30
2018-02-19T13:53:11.069Z,32.37
2018-02-19T13:55:41.445Z,29.47
2018-02-19T13:58:11.890Z,31.27
2018-02-19T14:00:42.279Z,30.30
2018-02-19T14:03:12.726Z,30.83
2018-02-19T14:05:43.442Z,28.97
2018-02-19T14:08:13.852Z,29.57
2018-02-19T14:10:46.162Z,28.67
2018-02-19T14:13:16.877Z,30.27
2018-02-19T14:15:47.215Z,31.53
2018-02-19T14:18:17.627Z,30.95
2018-02-19T14:20:48.033Z,28.53
2018-02-19T14:23:20.513Z,27.43
2018-02-19T14:25:51.672Z,26.80
2018-02-19T14:28:22.251Z,26.37
2018-02-19T14:30:52.766Z,22.80
2018-02-19T14:33:23.264Z,21.83
2018-02-19T14:35:53.683Z,19.30
2018-02-19T14:38:24.146Z,19.17
2018-02-19T14:40:54.909Z,20.47
2018-02-19T14:43:25.369Z,16.60
2018-02-19T14:45:55.838Z,18.70
2018-02-19T14:48:26.310Z,16.17
2018-02-19T14:50:57.496Z,16.57
2018-02-19T14:53:28.273Z,15.87
2018-02-19T14:55:58.933Z,14.77
2018-02-19T14:58:30.537Z,15.00
2018-02-19T15:01:00.931Z,15.03
2018-02-19T15:03:31.390Z,16.17
2018-02-19T15:06:01.895Z,16.07
2018-02-19T15:08:32.401Z,15.47
2018-02-19T15:11:03.084Z,16.53
2018-02-19T15:13:33.649Z,15.20
2018-02-19T15:16:04.807Z,16.73
2018-02-19T15:18:35.251Z,20.37
2018-02-19T15:21:05.705Z,27.90
2018-02-19T15:23:36.272Z,30.23
2018-02-19T15:26:08.067Z,31.73
2018-02-19T15:28:39.221Z,32.90
2018-02-19T15:31:09.856Z,33.07
2018-02-19T15:33:40.347Z,37.20
2018-02-19T15:36:10.786Z,33.73
2018-02-19T15:38:41.429Z,37.13
2018-02-19T15:41:12.837Z,36.40
2018-02-19T15:43:44.659Z,40.10
2018-02-19T15:46:15.406Z,42.10
2018-02-19T15:48:45.838Z,42.10
2018-02-19T15:51:16.391Z,43.00
2018-02-19T15:53:47.558Z,42.63
2018-02-19T15:56:18.410Z,42.37
2018-02-19T15:58:49.360Z,41.47
2018-02-19T16:01:20.024Z,39.90
2018-02-19T16:03:50.681Z,39.03
2018-02-19T16:06:21.644Z,43.10
2018-02-19T16:08:52.097Z,37.30
2018-02-19T16:11:23.966Z,35.33
2018-02-19T16:13:54.402Z,34.80
2018-02-19T16:16:25.227Z,34.33
2018-02-19T16:18:55.787Z,32.37
2018-02-19T16:21:27.139Z,31.17
2018-02-19T16:23:58.569Z,30.13
2018-02-19T16:26:29.157Z,30.67
2018-02-19T16:29:00.071Z,27.20
2018-02-19T16:31:30.629Z,28.67
2018-02-19T16:34:01.080Z,28.63
2018-02-19T16:36:31.489Z,29.50
2018-02-19T16:39:01.930Z,29.30
2018-02-19T16:41:33.001Z,27.23
2018-02-19T16:44:04.167Z,29.20
2018-02-19T16:46:34.977Z,28.37
2018-02-19T16:49:05.415Z,29.27
2018-02-19T16:51:36.607Z,28.70
2018-02-19T16:54:07.002Z,27.70
2018-02-19T16:56:37.337Z,28.20
2018-02-19T16:59:08.140Z,26.47
2018-02-19T17:01:39.369Z,27.83
2018-02-19T17:04:09.924Z,27.67
2018-02-19T17:06:41.097Z,27.80
2018-02-19T17:09:11.555Z,25.77
2018-02-19T17:11:42.805Z,26.13
2018-02-19T17:14:13.294Z,23.97
2018-02-19T17:16:44.130Z,21.73
2018-02-19T17:19:15.175Z,20.30
2018-02-19T17:21:45.841Z,19.80
2018-02-19T17:24:16.300Z,19.50
2018-02-19T17:26:47.535Z,18.43
2018-02-19T17:29:18.484Z,18.90
2018-02-19T17:31:49.654Z,17.23
2018-02-19T17:34:20.202Z,17.80
2018-02-19T17:36:51.678Z,19.03
2018-02-19T17:39:22.034Z,17.60
2018-02-19T17:41:53.214Z,20.00
2018-02-19T17:44:23.608Z,17.10
2018-02-19T17:46:55.186Z,17.97
2018-02-19T17:49:25.542Z,17.77
2018-02-19T17:51:55.991Z,18.40
2018-02-19T17:54:26.353Z,17.83
2018-02-19T17:56:56.765Z,18.33
2018-02-19T17:59:28.179Z,18.50
2018-02-19T18:01:58.611Z,17.70
2018-02-19T18:04:30.483Z,17.07
2018-02-19T18:07:00.903Z,18.30
2018-02-19T18:09:31.266Z,18.33
2018-02-19T18:12:01.657Z,18.97
2018-02-19T18:14:32.029Z,17.60
2018-02-19T18:17:02.958Z,18.07
2018-02-19T18:19:33.605Z,17.27
2018-02-19T18:22:03.949Z,18.50
2018-02-19T18:24:34.429Z,16.40
2018-02-19T18:27:05.611Z,16.73
2018-02-19T18:29:36.467Z,15.00
2018-02-19T18:32:07.647Z,14.57
2018-02-19T18:34:39.131Z,15.70
2018-02-19T18:37:09.643Z,15.23
2018-02-19T18:39:40.085Z,16.03
2018-02-19T18:42:11.142Z,15.37
2018-02-19T18:44:41.621Z,16.57
2018-02-19T18:47:13.969Z,17.17
2018-02-19T18:49:44.372Z,15.23
2018-02-19T18:52:15.373Z,15.10
2018-02-19T18:54:46.066Z,14.43
2018-02-19T18:57:16.425Z,14.57
2018-02-19T18:59:47.607Z,13.60
2018-02-19T19:02:18.082Z,11.90
2018-02-19T19:04:48.963Z,12.27
2018-02-19T19:07:29.885Z,13.27
2018-02-19T19:10:10.941Z,13.53
2018-02-19T19:12:41.364Z,11.87
2018-02-19T19:15:11.800Z,11.80
2018-02-19T19:17:42.407Z,12.90
2018-02-19T19:20:12.769Z,12.73
2018-02-19T19:22:43.481Z,11.70
2018-02-19T19:25:13.859Z,12.97
2018-02-19T19:27:44.282Z,12.67
2018-02-19T19:30:17.597Z,12.67
2018-02-19T19:32:48.114Z,14.23
2018-02-19T19:35:18.850Z,13.90
2018-02-19T19:37:49.269Z,14.77
2018-02-19T19:40:19.603Z,14.17
2018-02-19T19:42:49.942Z,14.93
2018-02-19T19:45:20.422Z,15.03
2018-02-19T19:47:51.813Z,15.10
2018-02-19T19:50:22.226Z,16.23
2018-02-19T19:52:52.666Z,16.40
2018-02-19T19:55:23.133Z,15.30
2018-02-19T19:57:53.598Z,14.50
2018-02-19T20:00:26.106Z,16.17
2018-02-19T20:02:56.516Z,16.20
2018-02-19T20:05:27.357Z,17.07
2018-02-19T20:07:57.777Z,16.10
2018-02-19T20:10:28.235Z,16.20
2018-02-19T20:12:58.677Z,16.00
2018-02-19T20:15:29.098Z,17.13
2018-02-19T20:17:59.894Z,17.57
2018-02-19T20:20:30.370Z,15.63
2018-02-19T20:23:01.641Z,16.60
2018-02-19T20:25:33.119Z,16.47
2018-02-19T20:28:03.559Z,17.80
2018-02-19T20:30:34.017Z,17.00
2018-02-19T20:33:04.419Z,16.43
2018-02-19T20:35:35.219Z,17.43
2018-02-19T20:38:06.322Z,16.10
2018-02-19T20:40:37.668Z,17.20
2018-02-19T20:43:08.054Z,15.40
2018-02-19T20:45:38.539Z,16.00
2018-02-19T20:48:10.173Z,15.57
2018-02-19T20:50:41.574Z,15.10
2018-02-19T20:53:13.175Z,14.63
2018-02-19T20:55:44.518Z,16.10
2018-02-19T20:58:14.889Z,15.63
2018-02-19T21:00:45.418Z,15.00
2018-02-19T21:03:15.826Z,15.97
2018-02-19T21:05:48.245Z,14.93
2018-02-19T21:08:18.629Z,16.33
2018-02-19T21:10:49.807Z,14.33
2018-02-19T21:13:20.241Z,13.53
2018-02-19T21:15:50.734Z,15.53
2018-02-19T21:18:22.265Z,16.60
2018-02-19T21:20:52.662Z,16.60
2018-02-19T21:23:23.477Z,16.30
2018-02-19T21:25:54.211Z,18.07
2018-02-19T21:28:24.691Z,18.03
2018-02-19T21:30:55.071Z,18.67
2018-02-19T21:33:25.459Z,18.33
2018-02-19T21:35:56.935Z,20.60
2018-02-19T21:38:27.335Z,19.60
2018-02-19T21:40:58.562Z,22.00
2018-02-19T21:43:28.978Z,21.17
2018-02-19T21:45:59.409Z,21.60
2018-02-19T21:48:29.856Z,23.47
2018-02-19T21:51:01.057Z,22.47
2018-02-19T21:53:31.757Z,24.90
2018-02-19T21:56:02.171Z,24.47
2018-02-19T21:58:33.325Z,25.40
2018-02-19T22:01:03.743Z,26.17
2018-02-19T22:03:34.181Z,24.23
2018-02-19T22:06:04.931Z,24.30
2018-02-19T22:08:35.329Z,24.70
2018-02-19T22:11:06.027Z,26.20
2018-02-19T22:13:36.434Z,25.10
2018-02-19T22:16:06.796Z,26.53
2018-02-19T22:18:38.007Z,27.17
2018-02-19T22:21:08.421Z,25.20
2018-02-19T22:23:39.216Z,25.13
2018-02-19T22:26:09.692Z,26.00
2018-02-19T22:28:40.133Z,27.03
2018-02-19T22:31:10.561Z,27.57
2018-02-19T22:33:41.094Z,26.83
2018-02-19T22:36:11.539Z,26.43
2018-02-19T22:38:42.686Z,25.73
2018-02-19T22:41:14.267Z,25.57
2018-02-19T22:43:44.746Z,26.07
2018-02-19T22:46:16.054Z,27.27
2018-02-19T22:48:46.569Z,24.60
2018-02-19T22:51:16.910Z,25.13
2018-02-19T22:53:47.521Z,25.57
2018-02-19T22:56:18.190Z,25.20
2018-02-19T22:58:48.692Z,24.90
2018-02-19T23:01:19.117Z,25.07
2018-02-19T23:03:49.565Z,24.80
2018-02-19T23:06:19.991Z,24.57
2018-02-19T23:08:50.407Z,25.70
2018-02-19T23:11:21.374Z,24.10
2018-02-19T23:13:51.760Z,24.67
2018-02-19T23:16:22.185Z,25.23
2018-02-19T23:18:52.610Z,23.77
2018-02-19T23:21:23.307Z,24.80
2018-02-19T23:23:54.641Z,25.50
2018-02-19T23:26:25.734Z,25.23
2018-02-19T23:28:56.607Z,26.27
2018-02-19T23:31:27.050Z,25.33
2018-02-19T23:33:58.190Z,26.17
2018-02-19T23:36:28.561Z,24.47
2018-02-19T23:38:58.938Z,25.43
2018-02-19T23:41:29.866Z,25.30
2018-02-19T23:44:00.330Z,26.60
2018-02-19T23:46:32.161Z,26.03
2018-02-19T23:49:02.587Z,28.70
2018-02-19T23:51:33.836Z,27.80
2018-02-19T23:54:04.367Z,26.93
2018-02-19T23:56:34.781Z,26.57
2018-02-19T23:59:05.591Z,25.83
